Hawaii National Park, Hawaii
Current Conditions -  °F | °C
As of 10:53 AM on Sunday 23 Nov 2014 (Local Time) from PHTO Reporting Station
Few Clouds Few Clouds  
Wind Chill: 79°   Ceiling: Unl
Heat Index: 81°   Visibility: 10mi
Dew Point: 67°   Wind: 7mph
Humidity: 66%   Direction: 160°SSE
Pressure: 29.99"   Gusts: NA
Location:  19.4324°N, 155.258°W
Report Text: PHTO 232053Z 16006KT 10SM FEW032 26/19 A2999 RMK AO2 SLP155 T02610194 58014 $
Loading
Personal Weather Stations






























Interactive Weather Map New forecast layout! Learn more

10-Day Weather Forecast

Advertisements
Track Severe Weather on mobile